Time;durP1;ratioP1;P1;durP2;ratioP2;P2;SDS_P1;SDS_P2;PMS_P1;PMS_P2;Temp;Humidity;BMP_temperature;BMP_pressure;BME280_temperature;BME280_humidity;BME280_pressure;Samples;Min_cycle;Max_cycle;Signal;HPM_P1;HPM_P2
2023/01/16 05:11:14;;;;;;;6.10;3.10;;;;;;;2.32;100.00;99324.04;92348;1290;948074;-59
2023/01/16 05:13:41;;;;;;;4.80;3.10;;;;;;;2.39;100.00;99322.20;102344;1292;61227;-62
2023/01/16 05:21:19;;;;;;;3.40;2.80;;;;;;;2.44;100.00;99314.34;101809;1293;72139;-60
2023/01/16 05:23:47;;;;;;;2.80;2.50;;;;;;;2.44;100.00;99314.67;101379;1290;73260;-61
2023/01/16 05:26:14;;;;;;;3.60;3.00;;;;;;;2.45;100.00;99311.21;101286;1309;62897;-60
2023/01/16 05:28:41;;;;;;;2.80;2.50;;;;;;;2.42;100.00;99305.21;101387;1294;63290;-61
2023/01/16 05:31:08;;;;;;;3.40;3.00;;;;;;;2.40;100.00;99305.58;101465;1287;75142;-61
2023/01/16 05:33:36;;;;;;;3.00;2.80;;;;;;;2.40;100.00;99301.93;101384;1309;70413;-61
2023/01/16 05:36:03;;;;;;;3.00;2.70;;;;;;;2.44;100.00;99301.89;101612;1302;73799;-60
2023/01/16 05:38:30;;;;;;;3.80;3.10;;;;;;;2.46;100.00;99295.80;101404;1296;61008;-60
2023/01/16 05:40:57;;;;;;;3.10;2.80;;;;;;;2.43;100.00;99296.53;101466;1294;64040;-60
2023/01/16 05:43:25;;;;;;;3.40;3.10;;;;;;;2.42;100.00;99298.45;101421;1303;74714;-59
2023/01/16 05:45:52;;;;;;;3.10;2.80;;;;;;;2.39;100.00;99298.48;101437;1292;72852;-60
2023/01/16 05:48:19;;;;;;;3.10;2.70;;;;;;;2.43;100.00;99301.55;101309;1287;74478;-61
2023/01/16 05:50:46;;;;;;;3.30;3.00;;;;;;;2.48;100.00;99302.17;101378;1295;61182;-62
2023/01/16 05:53:13;;;;;;;3.30;2.90;;;;;;;2.45;100.00;99298.58;101385;1297;61588;-59
2023/01/16 06:23:17;;;;;;;5.10;3.30;;;;;;;0.32;100.00;99333.15;103256;1279;615089;-62
2023/01/16 06:25:48;;;;;;;3.00;2.70;;;;;;;0.87;100.00;99357.26;103653;1269;59385;-59
2023/01/16 06:28:17;;;;;;;3.90;3.50;;;;;;;1.08;100.00;99352.26;103286;1267;59957;-59
2023/01/16 06:30:44;;;;;;;3.40;3.00;;;;;;;1.28;100.00;99342.91;103466;1273;71515;-62
2023/01/16 06:33:12;;;;;;;3.80;3.30;;;;;;;1.44;100.00;99339.29;103425;1265;70736;-65
2023/01/16 06:35:40;;;;;;;4.10;3.00;;;;;;;1.59;100.00;99329.45;103514;1260;345233;-61
2023/01/16 06:38:10;;;;;;;3.80;3.50;;;;;;;1.67;100.00;99324.89;104311;1260;59944;-61
2023/01/16 06:40:37;;;;;;;3.80;3.30;;;;;;;1.70;100.00;99317.59;104356;1256;59745;-60
2023/01/16 06:43:08;;;;;;;3.20;2.90;;;;;;;1.79;100.00;99308.14;104306;1257;71952;-62
2023/01/16 06:45:35;;;;;;;3.10;2.80;;;;;;;1.92;100.00;99304.34;104271;1257;68664;-60
2023/01/16 06:48:03;;;;;;;3.10;2.60;;;;;;;2.01;100.00;99297.13;104375;1264;72844;-61
2023/01/16 06:50:31;;;;;;;3.00;2.70;;;;;;;2.04;100.00;99296.41;104353;1259;59705;-61
2023/01/16 06:52:59;;;;;;;4.00;2.60;;;;;;;2.05;100.00;99297.08;104327;1275;60021;-62
2023/01/16 06:55:28;;;;;;;3.40;3.10;;;;;;;2.09;100.00;99292.89;104315;1257;71856;-61
2023/01/16 06:57:56;;;;;;;3.20;2.90;;;;;;;2.16;100.00;99290.19;104402;1254;69727;-61
2023/01/16 07:00:23;;;;;;;3.40;3.10;;;;;;;2.23;100.00;99294.41;104313;1257;73924;-61
2023/01/16 07:02:51;;;;;;;2.70;2.50;;;;;;;2.29;100.00;99293.27;104415;1253;59774;-62
2023/01/16 07:05:19;;;;;;;4.00;3.10;;;;;;;2.30;100.00;99291.19;104458;1256;59981;-64
2023/01/16 07:07:47;;;;;;;;;;;;;;;2.35;100.00;99289.91;104358;1275;73757;-63
2023/01/16 07:10:16;;;;;;;3.20;2.90;;;;;;;2.37;100.00;99288.86;104300;1259;69640;-64
2023/01/16 07:12:43;;;;;;;3.10;2.80;;;;;;;2.46;100.00;99286.63;104483;1265;73982;-64
2023/01/16 07:23:38;;;;;;;3.10;2.60;;;;;;;2.65;100.00;99274.40;104303;1257;69540;-62
2023/01/16 07:26:06;;;;;;;2.80;2.50;;;;;;;2.67;100.00;99270.89;104331;1258;72665;-60
2023/01/16 07:28:35;;;;;;;4.10;2.70;;;;;;;2.66;100.00;99273.14;104392;1253;60091;-58
2023/01/16 07:31:03;;;;;;;3.40;2.70;;;;;;;2.67;100.00;99273.48;104276;1254;61389;-61
2023/01/16 07:33:31;;;;;;;3.00;2.60;;;;;;;2.71;100.00;99270.64;104371;1259;72194;-59
2023/01/16 07:35:58;;;;;;;3.20;2.90;;;;;;;2.79;100.00;99269.13;104269;1255;69231;-59
2023/01/16 07:38:25;;;;;;;3.10;2.80;;;;;;;2.83;100.00;99267.67;104226;1256;72001;-60
2023/01/16 07:40:53;;;;;;;3.20;2.60;;;;;;;2.84;100.00;99269.73;104300;1260;59749;-59
2023/01/16 07:47:14;;;;;;;5.00;3.60;;;;;;;2.80;100.00;99269.27;104254;1259;72633;-60
2023/01/16 07:49:42;;;;;;;5.80;4.40;;;;;;;2.86;100.00;99264.35;104024;1262;70163;-59
2023/01/16 07:52:09;;;;;;;5.50;4.60;;;;;;;2.88;100.00;99264.98;104336;1259;74104;-63
2023/01/16 12:36:30;;;;;;;12.60;9.20;;;;;;;1.32;100.00;99087.80;102430;1291;614341;-58
2023/01/16 12:38:57;;;;;;;13.60;10.00;;;;;;;2.10;100.00;99116.69;103744;1266;61577;-58
2023/01/16 12:44:29;;;;;;;12.80;10.40;;;;;;;2.58;100.00;99085.89;104480;1258;72924;-61
2023/01/16 12:47:06;;;;;;;12.30;9.10;;;;;;;2.72;100.00;99065.20;104421;1274;71628;-59
2023/01/16 12:50:12;;;;;;;10.70;8.40;;;;;;;2.86;100.00;99054.36;104365;1257;289883;-60
2023/01/16 12:53:12;;;;;;;11.50;9.20;;;;;;;3.01;100.00;99044.51;104632;1260;62189;-58
2023/01/16 12:55:49;;;;;;;9.10;8.00;;;;;;;3.15;100.00;99042.30;104649;1254;61684;-59
2023/01/16 12:58:35;;;;;;;11.20;8.50;;;;;;;3.24;100.00;99040.70;104665;1254;73537;-58
2023/01/16 13:01:26;;;;;;;10.70;8.10;;;;;;;3.33;100.00;99041.73;104877;1254;69763;-62
2023/01/16 13:03:57;;;;;;;9.30;6.90;;;;;;;3.40;100.00;99041.04;104712;1257;73384;-64
2023/01/16 13:06:42;;;;;;;8.50;6.80;;;;;;;3.46;100.00;99042.12;104524;1254;61465;-62
2023/01/16 13:09:26;;;;;;;7.70;6.90;;;;;;;3.50;100.00;99043.58;104605;1252;62617;-63
2023/01/16 13:15:23;;;;;;;8.40;7.10;;;;;;;3.60;100.00;99046.64;104510;1260;71115;-62
2023/01/16 13:17:58;;;;;;;7.20;6.20;;;;;;;3.63;100.00;99048.80;104281;1254;74165;-66
2023/01/16 13:20:25;;;;;;;7.90;6.90;;;;;;;3.65;100.00;99048.26;104541;1257;61314;-60
2023/01/16 13:22:55;;;;;;;9.10;6.90;;;;;;;3.60;100.00;99049.22;104342;1253;62469;-59
2023/01/16 13:25:23;;;;;;;10.00;8.10;;;;;;;3.60;100.00;99050.27;104658;1254;75210;-61
2023/01/16 13:27:57;;;;;;;14.30;9.50;;;;;;;3.63;100.00;99048.64;104381;1254;72374;-61
2023/01/16 13:30:24;;;;;;;11.70;8.90;;;;;;;3.66;100.00;99047.02;104334;1258;73081;-62
2023/01/16 13:32:59;;;;;;;9.30;7.70;;;;;;;3.68;100.00;99044.88;104250;1254;63036;-61
2023/01/16 13:35:38;;;;;;;8.20;7.40;;;;;;;3.69;100.00;99040.18;104221;1258;60976;-60
2023/01/16 13:41:48;;;;;;;6.70;6.00;;;;;;;3.69;100.00;99042.09;104227;1265;71782;-63
2023/01/16 13:47:04;;;;;;;6.50;5.80;;;;;;;3.68;100.00;99034.14;103757;1263;61171;-61
2023/01/16 13:49:33;;;;;;;7.90;6.60;;;;;;;3.72;100.00;99027.45;104082;1261;60624;-63
2023/01/16 13:52:01;;;;;;;6.90;6.20;;;;;;;3.74;100.00;99029.15;103983;1268;74382;-61
2023/01/16 13:54:38;;;;;;;7.00;5.90;;;;;;;3.76;100.00;99029.45;104118;1258;70809;-60
2023/01/16 13:57:15;;;;;;;6.80;6.10;;;;;;;3.77;100.00;99031.14;103814;1270;74909;-65
2023/01/16 13:59:52;;;;;;;8.90;6.80;;;;;;;3.75;100.00;99031.03;104054;1271;62206;-63
2023/01/16 14:03:02;;;;;;;8.50;6.90;;;;;;;3.75;100.00;99028.59;104416;1273;60817;-62
2023/01/16 14:05:36;;;;;;;7.50;6.60;;;;;;;3.77;100.00;99024.20;104146;1264;75234;-64
2023/01/16 14:11:00;;;;;;;8.50;6.50;;;;;;;3.73;100.00;99025.70;104218;1259;75548;-61
2023/01/16 19:17:55;;;;;;;12.40;9.90;;;;;;;2.84;100.00;98810.96;102001;1292;601647;-62
2023/01/16 19:20:27;;;;;;;16.70;12.50;;;;;;;3.87;100.00;98846.06;104244;1267;62426;-63
2023/01/16 19:22:54;;;;;;;15.40;11.80;;;;;;;-128.00;-1.00;-1.00;101164;1267;1011190;-62
2023/01/16 19:25:22;;;;;;;16.80;11.60;;;;;;;-128.00;-1.00;-1.00;101100;1267;1003884;-63
2023/01/16 19:27:49;;;;;;;14.30;10.70;;;;;;;-128.00;-1.00;-1.00;101099;1267;1002877;-62
2023/01/16 19:30:16;;;;;;;11.30;9.50;;;;;;;-128.00;-1.00;-1.00;101050;1272;1005069;-62
2023/01/16 19:32:44;;;;;;;13.90;10.50;;;;;;;-128.00;-1.00;-1.00;101299;1264;1151925;-62
2023/01/16 19:35:12;;;;;;;12.20;9.60;;;;;;;-128.00;-1.00;-1.00;101508;1264;1011807;-63
2023/01/16 19:37:43;;;;;;;12.60;9.50;;;;;;;-128.00;-1.00;-1.00;101378;1264;1002495;-63
2023/01/16 19:40:16;;;;;;;11.10;8.80;;;;;;;-128.00;-1.00;-1.00;101399;1262;1013052;-63
2023/01/16 19:48:22;;;;;;;11.80;9.40;;;;;;;-128.00;-1.00;-1.00;101571;1257;1011837;-63
2023/01/16 19:50:49;;;;;;;14.00;9.20;;;;;;;-128.00;-1.00;-1.00;101558;1257;1016477;-63
2023/01/16 19:53:16;;;;;;;11.10;8.70;;;;;;;-128.00;-1.00;-1.00;101773;1257;1003805;-63
2023/01/16 19:59:32;;;;;;;12.90;8.10;;;;;;;-48.75;59.60;59287.29;101330;1291;1002259;-66
2023/01/16 20:02:04;;;;;;;11.00;7.60;;;;;;;-128.00;-1.00;-1.00;101252;1266;1012430;-63
2023/01/16 20:04:33;;;;;;;10.90;7.80;;;;;;;-128.00;-1.00;-1.00;101187;1265;1011838;-62
2023/01/16 20:07:02;;;;;;;12.10;9.00;;;;;;;-128.00;-1.00;-1.00;101212;1266;1012638;-64
2023/01/16 20:09:29;;;;;;;10.20;8.20;;;;;;;-128.00;-1.00;-1.00;101018;1266;1012876;-64
2023/01/16 20:16:11;;;;;;;11.30;8.30;;;;;;;-128.00;-1.00;-1.00;100779;1272;1010562;-61
2023/01/16 20:18:39;;;;;;;9.20;7.20;;;;;;;-128.00;-1.00;-1.00;100254;1277;1003358;-63
2023/01/16 20:21:09;;;;;;;9.50;7.90;;;;;;;-128.00;-1.00;-1.00;100521;1272;1004006;-62
2023/01/16 20:23:36;;;;;;;8.90;7.00;;;;;;;-128.00;-1.00;-1.00;100745;1272;1013289;-62
2023/01/16 20:26:05;;;;;;;9.10;7.20;;;;;;;-128.00;-1.00;-1.00;100278;1272;1004808;-62
2023/01/16 20:28:40;;;;;;;8.40;7.50;;;;;;;-128.00;-1.00;-1.00;100768;1278;1013412;-64
2023/01/16 20:31:13;;;;;;;9.00;6.70;;;;;;;-128.00;-1.00;-1.00;100308;1288;1011369;-64
2023/01/16 20:33:40;;;;;;;8.60;7.40;;;;;;;-128.00;-1.00;-1.00;100617;1272;1012778;-64
2023/01/16 20:36:08;;;;;;;9.30;7.10;;;;;;;-128.00;-1.00;-1.00;100757;1272;1004151;-63
2023/01/16 20:38:37;;;;;;;;;;;;;;;-128.00;-1.00;-1.00;100498;1272;1002426;-62
2023/01/16 20:41:09;;;;;;;12.60;8.20;;;;;;;-128.00;-1.00;-1.00;100745;1278;1012741;-63
2023/01/16 20:46:23;;;;;;;10.40;8.20;;;;;;;-128.00;-1.00;-1.00;100804;1278;1012227;-64
2023/01/16 20:48:50;;;;;;;10.30;7.30;;;;;;;-128.00;-1.00;-1.00;100846;1273;1002354;-62
2023/01/16 20:51:17;;;;;;;9.30;7.70;;;;;;;-128.00;-1.00;-1.00;100782;1268;1002743;-62
2023/01/16 20:53:44;;;;;;;11.30;7.70;;;;;;;-128.00;-1.00;-1.00;100784;1269;1003578;-63
2023/01/16 20:56:11;;;;;;;9.40;7.10;;;;;;;-128.00;-1.00;-1.00;100753;1269;1002655;-63
2023/01/16 20:58:39;;;;;;;8.50;7.00;;;;;;;-128.00;-1.00;-1.00;100788;1268;1003636;-62
2023/01/16 21:01:06;;;;;;;8.60;7.70;;;;;;;-128.00;-1.00;-1.00;100764;1271;1002851;-63
2023/01/16 21:03:33;;;;;;;7.90;6.90;;;;;;;-128.00;-1.00;-1.00;100796;1274;1004619;-63
2023/01/16 21:06:00;;;;;;;8.50;7.10;;;;;;;-128.00;-1.00;-1.00;100775;1273;1003356;-61
2023/01/16 21:08:27;;;;;;;9.10;7.80;;;;;;;-128.00;-1.00;-1.00;100863;1269;1003692;-64
2023/01/16 21:10:55;;;;;;;9.90;8.10;;;;;;;-128.00;-1.00;-1.00;100880;1268;1002477;-63
2023/01/16 21:21:49;;;;;;;9.30;7.60;;;;;;;-128.00;-1.00;-1.00;100880;1269;1013434;-62
2023/01/16 21:24:18;;;;;;;10.00;7.80;;;;;;;-128.00;-1.00;-1.00;100645;1272;1013579;-64
2023/01/16 21:26:47;;;;;;;13.00;8.20;;;;;;;-128.00;-1.00;-1.00;100841;1266;1015572;-63
2023/01/16 21:29:14;;;;;;;8.60;7.10;;;;;;;-128.00;-1.00;-1.00;100725;1267;1003185;-62
2023/01/16 21:31:41;;;;;;;7.20;6.50;;;;;;;-128.00;-1.00;-1.00;100710;1266;1004336;-63
2023/01/16 21:34:10;;;;;;;9.90;7.20;;;;;;;-128.00;-1.00;-1.00;100720;1266;1003384;-65
2023/01/16 21:36:38;;;;;;;8.00;6.90;;;;;;;-128.00;-1.00;-1.00;100595;1279;1013470;-65
2023/01/16 21:39:05;;;;;;;7.60;6.70;;;;;;;-128.00;-1.00;-1.00;100787;1270;1002782;-64
2023/01/16 21:46:26;;;;;;;8.90;6.80;;;;;;;-128.00;-1.00;-1.00;100680;1267;1002235;-62
2023/01/16 21:47:05;;;;;;;7.20;6.20;;;;;;;-128.00;-1.00;-1.00;101035;1266;1013653;-62
2023/01/16 21:49:33;;;;;;;7.20;5.90;;;;;;;-128.00;-1.00;-1.00;101108;1262;1005199;-64
2023/01/16 21:52:00;;;;;;;6.80;6.10;;;;;;;-128.00;-1.00;-1.00;101415;1267;1002705;-63
2023/01/16 21:54:27;;;;;;;11.40;6.00;;;;;;;-128.00;-1.00;-1.00;101263;1267;1003184;-63
2023/01/16 21:56:54;;;;;;;9.00;5.80;;;;;;;-128.00;-1.00;-1.00;101265;1261;1004966;-65
2023/01/16 21:59:21;;;;;;;6.30;5.70;;;;;;;-128.00;-1.00;-1.00;101326;1263;1002967;-63
2023/01/16 22:01:48;;;;;;;7.30;5.90;;;;;;;-128.00;-1.00;-1.00;101457;1262;1002531;-64
2023/01/16 22:04:16;;;;;;;7.30;5.10;;;;;;;-128.00;-1.00;-1.00;101408;1265;1002891;-63
2023/01/16 22:06:43;;;;;;;;;;;;;;;-128.00;-1.00;-1.00;101480;1267;1003436;-64
2023/01/16 22:09:10;;;;;;;5.40;4.90;;;;;;;-128.00;-1.00;-1.00;101373;1265;1002872;-65
